Time;durP1;ratioP1;P1;durP2;ratioP2;P2;SDS_P1;SDS_P2;PMS_P1;PMS_P2;Temp;Humidity;BMP_temperature;BMP_pressure;BME280_temperature;BME280_humidity;BME280_pressure;Samples;Min_cycle;Max_cycle;Signal;HPM_P1;HPM_P2
2021/07/11 00:01:54;;;;;;;4.88;3.40;;;24.10;57.70;;;;;;4978943;28;20049;-80
2021/07/11 00:04:20;;;;;;;4.43;3.50;;;24.10;57.70;;;;;;4995936;28;20042;-80
2021/07/11 00:06:46;;;;;;;4.40;3.75;;;24.10;57.80;;;;;;4978928;28;20129;-80
2021/07/11 00:09:12;;;;;;;4.47;3.45;;;24.00;57.70;;;;;;4963029;28;20109;-81
2021/07/11 00:11:38;;;;;;;4.80;3.50;;;24.00;57.80;;;;;;4994970;28;20034;-81
2021/07/11 00:14:04;;;;;;;4.07;3.33;;;24.00;57.80;;;;;;4962803;28;20031;-80
2021/07/11 00:16:31;;;;;;;4.55;3.28;;;24.00;57.80;;;;;;4996300;28;20430;-80
2021/07/11 00:18:58;;;;;;;4.47;3.33;;;24.00;58.50;;;;;;4978854;28;20446;-80
2021/07/11 00:21:23;;;;;;;4.38;3.30;;;24.00;57.90;;;;;;4978861;28;20402;-80
2021/07/11 00:23:49;;;;;;;4.13;3.35;;;24.00;57.90;;;;;;4978748;28;20038;-79
2021/07/11 00:26:15;;;;;;;4.18;3.10;;;24.00;58.00;;;;;;4962560;28;20376;-80
2021/07/11 00:28:41;;;;;;;5.03;4.03;;;23.90;57.90;;;;;;4962409;28;20037;-80
2021/07/11 00:31:07;;;;;;;4.85;3.65;;;23.90;58.00;;;;;;4962579;28;20038;-81
2021/07/11 00:33:33;;;;;;;4.95;3.35;;;23.90;58.00;;;;;;4994814;28;20493;-80
2021/07/11 00:35:58;;;;;;;4.60;3.60;;;23.80;58.00;;;;;;4995509;28;20027;-80
2021/07/11 00:38:24;;;;;;;5.05;3.60;;;23.80;58.00;;;;;;4978660;28;20486;-80
2021/07/11 00:40:50;;;;;;;4.97;3.47;;;23.80;58.10;;;;;;4979169;28;20038;-81
2021/07/11 00:43:16;;;;;;;4.20;3.20;;;23.80;58.10;;;;;;4978357;28;20495;-80
2021/07/11 00:45:43;;;;;;;4.00;2.97;;;23.80;58.10;;;;;;4978102;28;20030;-81
2021/07/11 00:48:09;;;;;;;4.57;3.58;;;23.80;58.20;;;;;;4978446;28;20042;-80
2021/07/11 00:50:36;;;;;;;4.75;3.67;;;23.80;58.20;;;;;;4961954;28;20031;-81
2021/07/11 00:53:11;;;;;;;5.30;3.72;;;23.80;58.20;;;;;;4963662;28;20045;-80
2021/07/11 00:55:39;;;;;;;4.57;3.35;;;23.80;58.30;;;;;;4978281;28;20189;-82
2021/07/11 00:58:07;;;;;;;4.30;3.30;;;23.70;58.20;;;;;;4978206;28;20382;-81
2021/07/11 01:00:47;;;;;;;4.95;3.30;;;23.70;58.30;;;;;;4993808;28;20049;-81
2021/07/11 01:03:35;;;;;;;4.60;3.70;;;23.70;58.30;;;;;;4948681;28;20106;-82
2021/07/11 01:06:09;;;;;;;3.95;3.03;;;23.70;58.50;;;;;;4973431;28;20030;-81
2021/07/11 01:08:56;;;;;;;4.30;3.10;;;23.70;58.40;;;;;;4958858;28;20380;-81
2021/07/11 01:11:24;;;;;;;4.65;3.17;;;23.60;58.50;;;;;;4958579;28;20121;-81
2021/07/11 01:13:57;;;;;;;4.75;3.15;;;23.60;59.00;;;;;;4943212;28;20031;-81
2021/07/11 01:16:33;;;;;;;4.63;3.20;;;23.60;58.50;;;;;;4974614;28;20031;-80
2021/07/11 01:19:23;;;;;;;3.75;2.90;;;23.60;58.60;;;;;;4959308;28;20046;-81
2021/07/11 01:21:52;;;;;;;4.18;3.13;;;23.60;58.60;;;;;;4974693;28;20031;-81
2021/07/11 01:24:32;;;;;;;5.28;3.65;;;23.50;58.50;;;;;;4958540;28;20476;-80
2021/07/11 01:27:00;;;;;;;4.43;3.40;;;23.50;58.60;;;;;;4974579;28;20026;-81
2021/07/11 01:29:27;;;;;;;4.97;3.50;;;23.50;58.60;;;;;;4958101;28;20025;-80
2021/07/11 01:31:54;;;;;;;4.57;3.50;;;23.50;58.70;;;;;;4974422;28;20030;-81
2021/07/11 01:34:22;;;;;;;4.72;3.75;;;23.50;58.70;;;;;;4958788;28;20490;-81
2021/07/11 01:36:49;;;;;;;4.90;3.35;;;23.50;58.80;;;;;;4975530;28;20081;-81
2021/07/11 01:39:18;;;;;;;4.60;3.53;;;23.40;58.80;;;;;;4975390;28;20034;-80
2021/07/11 01:41:46;;;;;;;5.05;3.67;;;23.40;58.80;;;;;;4968503;28;20043;-80
2021/07/11 01:44:14;;;;;;;4.90;3.78;;;23.50;58.90;;;;;;4955874;28;20143;-81
2021/07/11 01:46:44;;;;;;;4.28;3.40;;;23.40;58.90;;;;;;4984940;28;20090;-83
2021/07/11 01:49:11;;;;;;;5.05;3.78;;;23.40;58.90;;;;;;4977969;28;20027;-80
2021/07/11 01:51:38;;;;;;;4.47;3.35;;;23.40;59.00;;;;;;4958883;28;20084;-81
2021/07/11 01:54:06;;;;;;;4.40;3.40;;;23.40;59.00;;;;;;4950927;28;20580;-82
2021/07/11 01:56:38;;;;;;;4.82;3.53;;;23.40;59.00;;;;;;4990076;28;20027;-82
2021/07/11 01:59:09;;;;;;;5.20;3.70;;;23.30;59.00;;;;;;4983598;28;20042;-81
2021/07/11 02:01:45;;;;;;;5.60;4.00;;;23.30;59.10;;;;;;4967778;28;20357;-81
2021/07/11 02:04:14;;;;;;;5.10;4.00;;;23.30;59.10;;;;;;4994666;28;20471;-81
2021/07/11 02:06:42;;;;;;;5.07;3.83;;;23.30;59.20;;;;;;4977507;28;20039;-82
2021/07/11 02:09:16;;;;;;;4.68;3.67;;;23.30;59.20;;;;;;4963040;28;20058;-80
2021/07/11 02:11:44;;;;;;;4.82;3.92;;;23.30;59.20;;;;;;4961417;28;20030;-83
2021/07/11 02:14:17;;;;;;;4.70;3.83;;;23.20;59.90;;;;;;4977137;28;20360;-80
2021/07/11 02:16:57;;;;;;;5.45;4.10;;;23.20;59.40;;;;;;4961723;28;20084;-82
2021/07/11 02:19:34;;;;;;;4.72;3.50;;;23.20;59.40;;;;;;4962661;28;20470;-81
2021/07/11 02:22:02;;;;;;;5.07;3.95;;;23.20;59.30;;;;;;4960752;28;20045;-80
2021/07/11 02:24:35;;;;;;;4.53;3.45;;;23.20;59.30;;;;;;4960736;28;20022;-80
2021/07/11 02:27:02;;;;;;;4.78;3.72;;;23.20;59.40;;;;;;4992957;28;20030;-80
2021/07/11 02:29:34;;;;;;;4.88;3.80;;;23.10;59.30;;;;;;4976557;28;20043;-81
2021/07/11 02:32:03;;;;;;;4.65;3.55;;;23.10;59.40;;;;;;4993089;28;20042;-80
2021/07/11 02:34:29;;;;;;;6.10;4.20;;;23.10;59.40;;;;;;4993511;28;20026;-80
2021/07/11 02:36:57;;;;;;;5.05;3.95;;;23.10;59.40;;;;;;4993139;28;20035;-80
2021/07/11 02:39:24;;;;;;;5.07;3.63;;;23.10;59.50;;;;;;4976472;28;20413;-80
2021/07/11 02:42:05;;;;;;;5.28;4.00;;;23.10;59.50;;;;;;4976918;28;20046;-80
2021/07/11 02:44:33;;;;;;;4.53;3.25;;;23.10;59.50;;;;;;4961001;28;20065;-81
2021/07/11 02:47:09;;;;;;;5.40;3.90;;;23.00;59.50;;;;;;4976654;28;20374;-80
2021/07/11 02:49:41;;;;;;;5.10;3.75;;;23.00;59.60;;;;;;4976785;28;20030;-80
2021/07/11 02:52:13;;;;;;;5.30;4.23;;;23.00;59.60;;;;;;4961141;28;20045;-81
2021/07/11 02:54:55;;;;;;;4.90;3.95;;;23.00;59.60;;;;;;4992916;28;20285;-80
2021/07/11 02:57:24;;;;;;;5.65;4.32;;;23.00;59.70;;;;;;4977473;28;20030;-81
2021/07/11 02:59:54;;;;;;;5.47;3.97;;;22.90;59.60;;;;;;4978001;28;20038;-82
2021/07/11 03:02:24;;;;;;;5.18;3.88;;;23.00;59.70;;;;;;4979966;28;20058;-81
2021/07/11 03:04:53;;;;;;;4.85;3.50;;;22.90;59.70;;;;;;4980084;28;20129;-81
2021/07/11 03:07:20;;;;;;;5.70;4.07;;;22.90;59.70;;;;;;4996823;28;20033;-81
2021/07/11 03:09:47;;;;;;;4.72;3.90;;;22.90;59.70;;;;;;4964225;28;20084;-80
2021/07/11 03:12:17;;;;;;;6.07;3.97;;;22.90;59.70;;;;;;4964391;28;20455;-82
2021/07/11 03:14:48;;;;;;;5.47;4.15;;;22.90;59.70;;;;;;4995663;28;20038;-81
2021/07/11 03:17:19;;;;;;;4.60;3.70;;;22.80;59.70;;;;;;4980606;28;20046;-80
2021/07/11 03:19:49;;;;;;;5.15;3.78;;;22.80;59.70;;;;;;4964142;28;20061;-80
2021/07/11 03:22:22;;;;;;;5.25;4.00;;;22.80;59.80;;;;;;4964055;28;20042;-80
2021/07/11 03:24:50;;;;;;;4.88;3.72;;;22.80;59.70;;;;;;4979958;28;20046;-81
2021/07/11 03:27:17;;;;;;;5.05;3.83;;;22.80;59.80;;;;;;4963448;28;20030;-79
2021/07/11 03:30:02;;;;;;;5.38;3.95;;;22.80;59.80;;;;;;4963688;28;20483;-80
2021/07/11 03:32:59;;;;;;;5.10;3.72;;;22.80;60.00;;;;;;4979343;28;20040;-81
2021/07/11 03:35:36;;;;;;;4.90;3.85;;;22.80;60.00;;;;;;4979208;28;20498;-82
2021/07/11 03:38:07;;;;;;;5.93;4.10;;;22.80;59.90;;;;;;4979798;28;20026;-81
2021/07/11 03:40:37;;;;;;;4.85;3.72;;;22.70;59.90;;;;;;4996969;28;20049;-82
2021/07/11 03:43:13;;;;;;;4.60;3.65;;;22.70;60.00;;;;;;4963982;28;20034;-82
2021/07/11 03:45:43;;;;;;;5.75;4.32;;;22.70;60.10;;;;;;4963593;28;20035;-81
2021/07/11 03:48:16;;;;;;;4.93;3.95;;;22.70;60.00;;;;;;4963376;28;20459;-81
2021/07/11 03:50:45;;;;;;;5.40;4.25;;;22.70;60.10;;;;;;4979356;28;20395;-80
2021/07/11 03:53:11;;;;;;;5.50;4.30;;;22.60;60.10;;;;;;4979020;28;20482;-80
2021/07/11 03:55:39;;;;;;;5.68;4.68;;;22.70;60.10;;;;;;4979239;28;20499;-81
2021/07/11 03:58:08;;;;;;;6.15;4.60;;;22.60;60.10;;;;;;4979293;28;20076;-81
2021/07/11 04:00:35;;;;;;;6.25;5.00;;;22.70;60.20;;;;;;4996091;28;20042;-81
2021/07/11 04:03:04;;;;;;;5.43;4.60;;;22.60;60.20;;;;;;4995006;28;20038;-81
2021/07/11 04:05:35;;;;;;;5.40;4.38;;;22.60;60.30;;;;;;4962916;28;20034;-81
2021/07/11 04:08:02;;;;;;;5.88;4.65;;;22.60;60.30;;;;;;4995271;28;20062;-81
2021/07/11 04:10:30;;;;;;;5.40;4.15;;;22.60;60.30;;;;;;4978931;28;20027;-81
2021/07/11 04:12:58;;;;;;;6.25;5.07;;;22.60;60.40;;;;;;4978246;28;20109;-81
2021/07/11 04:15:24;;;;;;;6.32;4.93;;;22.60;60.40;;;;;;4996149;28;20057;-82
2021/07/11 04:17:54;;;;;;;5.65;4.47;;;22.60;60.40;;;;;;4978414;28;20034;-83
2021/07/11 04:20:23;;;;;;;5.95;4.60;;;22.50;60.40;;;;;;4978977;28;20030;-81
2021/07/11 04:22:54;;;;;;;6.22;4.82;;;22.50;60.50;;;;;;4962547;28;20022;-81
2021/07/11 04:25:21;;;;;;;5.97;4.70;;;22.50;60.50;;;;;;4978411;28;20118;-81
2021/07/11 04:27:49;;;;;;;5.72;4.50;;;22.50;60.50;;;;;;4978780;28;20081;-81
2021/07/11 04:30:15;;;;;;;6.45;5.07;;;22.50;60.60;;;;;;4962503;28;20121;-81
2021/07/11 04:32:41;;;;;;;6.05;4.95;;;22.50;60.60;;;;;;4962420;28;20048;-80
2021/07/11 04:35:08;;;;;;;6.38;4.93;;;22.50;60.60;;;;;;4978392;28;20163;-80
2021/07/11 04:37:34;;;;;;;6.85;5.70;;;22.50;60.70;;;;;;4995254;28;20117;-81
2021/07/11 04:40:00;;;;;;;6.57;5.25;;;22.40;60.70;;;;;;4978261;28;20018;-81
2021/07/11 04:42:26;;;;;;;6.35;5.30;;;22.50;60.80;;;;;;4978301;28;20387;-83
2021/07/11 04:44:52;;;;;;;6.18;5.18;;;22.40;60.80;;;;;;4962220;28;20033;-81
2021/07/11 04:47:18;;;;;;;6.35;5.03;;;22.40;60.80;;;;;;4994772;28;20030;-83
2021/07/11 04:49:44;;;;;;;6.82;5.20;;;22.40;60.80;;;;;;4977953;28;20022;-82
2021/07/11 04:52:10;;;;;;;6.60;5.32;;;22.40;60.90;;;;;;4961981;28;20479;-80
2021/07/11 04:54:36;;;;;;;6.25;4.85;;;22.40;60.90;;;;;;4977953;28;20041;-81
2021/07/11 04:57:03;;;;;;;6.97;5.40;;;22.40;60.90;;;;;;4961986;28;20045;-81
2021/07/11 04:59:29;;;;;;;7.18;5.32;;;22.40;61.00;;;;;;4978043;28;20018;-82
2021/07/11 05:01:55;;;;;;;7.47;5.63;;;22.30;61.00;;;;;;4994866;28;20394;-81
2021/07/11 05:04:21;;;;;;;6.47;5.32;;;22.40;61.10;;;;;;4994102;28;20134;-81
2021/07/11 05:06:47;;;;;;;6.07;5.07;;;22.30;61.10;;;;;;4977846;28;20092;-81
2021/07/11 05:09:12;;;;;;;5.82;4.75;;;22.30;61.10;;;;;;4995746;28;20026;-83
2021/07/11 05:11:38;;;;;;;6.88;5.50;;;22.30;61.10;;;;;;4961606;28;20136;-81
2021/07/11 05:14:04;;;;;;;6.57;5.38;;;22.30;61.10;;;;;;4961522;28;20031;-81
2021/07/11 05:16:31;;;;;;;7.38;5.47;;;22.30;61.20;;;;;;4977702;28;20066;-82
2021/07/11 05:18:56;;;;;;;5.85;4.82;;;22.30;61.20;;;;;;4961482;28;20053;-82
2021/07/11 05:21:22;;;;;;;6.15;4.93;;;22.30;61.20;;;;;;4994339;28;20040;-80
2021/07/11 05:23:49;;;;;;;6.65;5.32;;;22.30;61.20;;;;;;4960558;28;20036;-81
2021/07/11 05:26:14;;;;;;;6.35;4.97;;;22.20;61.20;;;;;;4993732;28;20069;-82
2021/07/11 05:28:40;;;;;;;6.82;5.78;;;22.30;61.30;;;;;;4993960;28;20062;-81
2021/07/11 05:31:07;;;;;;;6.32;5.35;;;22.20;61.30;;;;;;4961140;28;20026;-81
2021/07/11 05:33:34;;;;;;;7.60;6.25;;;22.20;61.30;;;;;;4993751;28;20113;-81
2021/07/11 05:36:00;;;;;;;6.50;5.28;;;22.20;61.40;;;;;;4977565;28;20034;-82
2021/07/11 05:38:26;;;;;;;6.88;5.45;;;22.20;61.40;;;;;;4994403;28;20030;-82
2021/07/11 05:40:53;;;;;;;6.43;5.30;;;22.20;61.60;;;;;;4961216;28;20089;-82
2021/07/11 05:43:19;;;;;;;6.90;5.50;;;22.20;61.60;;;;;;4977312;28;20026;-81
2021/07/11 05:45:45;;;;;;;6.30;5.20;;;22.20;61.60;;;;;;4977310;28;20038;-81
2021/07/11 05:48:10;;;;;;;6.25;5.30;;;22.20;61.60;;;;;;4961063;28;20022;-81
2021/07/11 05:50:37;;;;;;;7.10;5.93;;;22.20;61.60;;;;;;4993522;28;20049;-81
2021/07/11 05:53:02;;;;;;;6.75;5.68;;;22.20;61.70;;;;;;4994368;28;20045;-85
2021/07/11 05:55:28;;;;;;;6.45;5.50;;;22.20;61.80;;;;;;4977146;28;20479;-81
2021/07/11 05:57:54;;;;;;;6.63;5.55;;;22.20;61.80;;;;;;4977167;28;20030;-81
2021/07/11 06:00:20;;;;;;;6.70;5.65;;;22.20;61.90;;;;;;4960831;28;20034;-81
2021/07/11 06:02:46;;;;;;;6.85;5.38;;;22.20;61.90;;;;;;4977007;28;20049;-81
2021/07/11 06:05:12;;;;;;;7.18;5.68;;;22.20;61.90;;;;;;4961512;28;20042;-81
2021/07/11 06:07:38;;;;;;;7.18;5.78;;;22.20;62.00;;;;;;4976637;28;20366;-82
2021/07/11 06:10:06;;;;;;;7.65;5.88;;;22.20;62.00;;;;;;4961205;28;20027;-87
2021/07/11 06:12:32;;;;;;;7.47;6.45;;;22.20;62.10;;;;;;4960737;28;20034;-81
2021/07/11 06:14:58;;;;;;;7.32;6.25;;;22.10;62.00;;;;;;4977022;28;20077;-80
2021/07/11 06:17:24;;;;;;;7.00;6.03;;;22.20;62.10;;;;;;4976587;28;20049;-80
2021/07/11 06:19:50;;;;;;;6.95;6.03;;;22.20;62.10;;;;;;4976780;28;20026;-79
2021/07/11 06:22:16;;;;;;;7.20;5.75;;;22.20;62.10;;;;;;4976760;28;20491;-79
2021/07/11 06:24:42;;;;;;;7.50;6.57;;;22.20;62.20;;;;;;4976873;28;20475;-79
2021/07/11 06:27:07;;;;;;;7.13;6.38;;;22.10;62.20;;;;;;4960886;28;20038;-80
2021/07/11 06:29:33;;;;;;;8.35;6.50;;;22.20;62.30;;;;;;4960489;28;20038;-81
2021/07/11 06:31:59;;;;;;;6.97;6.15;;;22.10;62.30;;;;;;4961247;28;20042;-81
2021/07/11 06:34:24;;;;;;;7.13;6.35;;;22.20;62.30;;;;;;4976935;28;20058;-80
2021/07/11 06:36:50;;;;;;;7.53;6.47;;;22.20;62.30;;;;;;4980411;28;20038;-80
2021/07/11 06:39:16;;;;;;;8.70;6.93;;;22.20;62.30;;;;;;4980940;28;20030;-80
2021/07/11 06:41:42;;;;;;;7.65;6.25;;;22.10;62.30;;;;;;4981179;28;20354;-80
2021/07/11 06:44:07;;;;;;;8.35;6.55;;;22.20;62.30;;;;;;4964468;28;20030;-80
2021/07/11 06:46:33;;;;;;;8.00;6.28;;;22.20;62.40;;;;;;4980309;28;20046;-80
2021/07/11 06:48:59;;;;;;;7.00;6.05;;;22.20;62.40;;;;;;4980327;28;20430;-80
2021/07/11 06:51:24;;;;;;;7.65;6.40;;;22.20;62.40;;;;;;4996302;28;20038;-79
2021/07/11 06:53:50;;;;;;;6.97;5.95;;;22.20;62.40;;;;;;4980031;28;20042;-81
2021/07/11 06:56:16;;;;;;;7.60;6.28;;;22.20;62.40;;;;;;4997620;28;20082;-79
2021/07/11 06:58:41;;;;;;;8.80;6.38;;;22.20;62.40;;;;;;4980317;28;20040;-81
2021/07/11 07:01:07;;;;;;;7.45;6.32;;;22.20;62.50;;;;;;4964513;28;20451;-82
2021/07/11 07:03:33;;;;;;;7.15;6.07;;;22.20;62.50;;;;;;4979685;28;20058;-81
2021/07/11 07:05:59;;;;;;;7.72;6.68;;;22.20;62.50;;;;;;4980180;28;20402;-82
2021/07/11 07:08:25;;;;;;;6.78;6.07;;;22.20;62.50;;;;;;4980366;28;20085;-83
2021/07/11 07:10:52;;;;;;;6.93;6.10;;;22.20;62.50;;;;;;4979794;28;20039;-82
2021/07/11 07:13:20;;;;;;;7.78;6.65;;;22.20;62.60;;;;;;4997631;28;20117;-79
2021/07/11 07:15:46;;;;;;;7.10;6.20;;;22.20;62.60;;;;;;4980335;28;20037;-80
2021/07/11 07:18:11;;;;;;;8.70;6.07;;;22.30;62.60;;;;;;4996861;28;20034;-80
2021/07/11 07:20:38;;;;;;;8.27;6.65;;;22.30;62.70;;;;;;4979799;28;20061;-80
2021/07/11 07:23:04;;;;;;;8.00;6.55;;;22.30;62.70;;;;;;4979231;28;20026;-80
2021/07/11 07:25:29;;;;;;;7.63;5.85;;;22.30;62.60;;;;;;4979929;28;20041;-79
2021/07/11 07:27:55;;;;;;;7.43;6.28;;;22.30;62.70;;;;;;4963285;28;20030;-81
2021/07/11 07:30:21;;;;;;;7.38;6.18;;;22.30;62.60;;;;;;4995295;28;20497;-82
2021/07/11 07:32:48;;;;;;;6.28;5.63;;;22.40;62.70;;;;;;4997120;28;20040;-79
2021/07/11 07:35:19;;;;;;;7.53;6.20;;;22.40;62.70;;;;;;4979525;28;20111;-79
2021/07/11 07:37:46;;;;;;;7.15;6.00;;;22.40;62.70;;;;;;4963507;28;20030;-79
2021/07/11 07:40:18;;;;;;;7.57;6.43;;;22.40;62.80;;;;;;4996686;28;20059;-80
2021/07/11 07:42:47;;;;;;;6.82;5.80;;;22.40;62.80;;;;;;4979126;28;20042;-80
2021/07/11 07:45:14;;;;;;;6.70;5.70;;;22.40;62.80;;;;;;4963103;28;20121;-80
2021/07/11 07:47:40;;;;;;;7.13;6.13;;;22.40;62.80;;;;;;4977916;28;20035;-84
2021/07/11 07:50:12;;;;;;;8.07;6.32;;;22.50;62.90;;;;;;4962843;28;20023;-82
2021/07/11 07:52:38;;;;;;;8.07;6.70;;;22.50;62.90;;;;;;4979370;28;20077;-80
2021/07/11 07:55:05;;;;;;;6.85;5.88;;;22.50;62.80;;;;;;4979278;28;20038;-79
2021/07/11 07:57:31;;;;;;;8.23;6.80;;;22.60;62.90;;;;;;4962782;28;20037;-80
2021/07/11 07:59:56;;;;;;;7.50;6.63;;;22.60;62.90;;;;;;4979506;28;20026;-79
2021/07/11 08:02:23;;;;;;;7.68;6.53;;;22.60;62.90;;;;;;4978857;28;20046;-79
2021/07/11 08:04:49;;;;;;;7.53;6.72;;;22.70;62.90;;;;;;4979656;28;20053;-79
2021/07/11 08:07:15;;;;;;;7.40;6.55;;;22.70;62.90;;;;;;4995126;28;20034;-82
2021/07/11 08:09:41;;;;;;;7.72;6.93;;;22.70;62.90;;;;;;4962672;28;20109;-78
2021/07/11 08:12:07;;;;;;;7.68;6.45;;;22.80;62.90;;;;;;4962523;28;20042;-81
2021/07/11 08:14:34;;;;;;;8.25;7.25;;;22.80;62.90;;;;;;4962463;28;20038;-79
2021/07/11 08:16:59;;;;;;;8.27;7.18;;;22.80;62.90;;;;;;4962203;28;20048;-79
2021/07/11 08:19:25;;;;;;;8.65;7.38;;;22.90;62.90;;;;;;4978304;28;20034;-78
2021/07/11 08:21:53;;;;;;;7.72;6.72;;;22.90;62.80;;;;;;4994853;28;20042;-79
2021/07/11 08:24:22;;;;;;;7.78;6.95;;;22.90;62.80;;;;;;4978584;28;20057;-79
2021/07/11 08:26:49;;;;;;;8.18;7.30;;;23.00;62.80;;;;;;4994352;28;20034;-79
2021/07/11 08:29:15;;;;;;;8.07;7.28;;;23.00;62.80;;;;;;4994459;28;20030;-79
2021/07/11 08:31:41;;;;;;;8.45;7.22;;;23.00;62.80;;;;;;4962034;28;20030;-79
2021/07/11 08:34:07;;;;;;;7.32;6.35;;;23.10;62.80;;;;;;4978190;28;20042;-82
2021/07/11 08:36:32;;;;;;;8.73;7.38;;;23.10;62.80;;;;;;4994831;28;20026;-82
2021/07/11 08:38:59;;;;;;;8.57;7.60;;;23.10;62.80;;;;;;4978772;28;20053;-82
2021/07/11 08:41:25;;;;;;;8.68;7.78;;;23.10;62.80;;;;;;4978344;28;20474;-82
2021/07/11 08:43:53;;;;;;;7.53;6.72;;;23.10;62.70;;;;;;4994109;28;20030;-82
2021/07/11 08:46:19;;;;;;;9.38;8.10;;;23.20;62.80;;;;;;4978212;28;20026;-82
2021/07/11 08:48:48;;;;;;;9.13;7.78;;;23.20;62.90;;;;;;4978560;28;20030;-81
2021/07/11 08:51:15;;;;;;;9.98;7.50;;;23.20;62.80;;;;;;4978779;28;20038;-82
2021/07/11 08:53:44;;;;;;;8.77;7.35;;;23.20;62.80;;;;;;4978109;28;20038;-82
2021/07/11 08:56:21;;;;;;;8.43;7.15;;;23.20;62.80;;;;;;4994338;28;20041;-80
2021/07/11 08:58:53;;;;;;;8.10;7.10;;;23.30;63.00;;;;;;4994115;28;20065;-83
2021/07/11 09:01:21;;;;;;;9.20;7.65;;;23.30;62.90;;;;;;4977875;28;20041;-83
2021/07/11 09:04:08;;;;;;;8.43;7.40;;;23.30;62.80;;;;;;4995739;28;20060;-83
2021/07/11 09:06:55;;;;;;;8.43;7.15;;;23.30;63.00;;;;;;4977187;28;20042;-83
2021/07/11 09:09:27;;;;;;;7.68;6.78;;;23.30;62.90;;;;;;4978066;28;20462;-85
2021/07/11 09:12:01;;;;;;;9.00;7.72;;;23.40;63.10;;;;;;4977872;28;20525;-82
2021/07/11 09:14:30;;;;;;;9.02;7.55;;;23.40;62.80;;;;;;4995351;28;20034;-83
2021/07/11 09:16:57;;;;;;;7.82;6.80;;;23.40;62.70;;;;;;4977872;28;20069;-83
2021/07/11 09:19:30;;;;;;;8.50;7.00;;;23.40;62.70;;;;;;4978363;28;20418;-82
2021/07/11 09:22:01;;;;;;;8.85;7.32;;;23.40;62.80;;;;;;4977805;28;20034;-82
2021/07/11 09:24:28;;;;;;;9.13;7.20;;;23.50;62.70;;;;;;4977534;28;20033;-81
2021/07/11 09:27:03;;;;;;;8.07;6.82;;;23.50;62.70;;;;;;4995390;28;20400;-83
2021/07/11 09:29:31;;;;;;;8.45;7.10;;;23.50;62.70;;;;;;4995139;28;20022;-83
2021/07/11 09:31:58;;;;;;;8.40;6.78;;;23.50;62.60;;;;;;4977178;28;20030;-82
2021/07/11 09:34:26;;;;;;;8.20;7.32;;;23.50;62.60;;;;;;4993588;28;20038;-83
2021/07/11 09:37:05;;;;;;;7.15;6.10;;;23.50;62.60;;;;;;4993910;28;20038;-83
2021/07/11 09:39:31;;;;;;;7.65;6.30;;;23.60;62.60;;;;;;4993917;28;20030;-82
2021/07/11 09:41:57;;;;;;;8.70;6.72;;;23.60;62.50;;;;;;4978082;28;20365;-82
2021/07/11 09:44:23;;;;;;;9.00;7.07;;;23.70;62.50;;;;;;4993685;28;20030;-83
2021/07/11 09:46:48;;;;;;;7.40;6.30;;;23.60;62.40;;;;;;4977437;28;20026;-82
2021/07/11 09:49:18;;;;;;;7.22;6.05;;;23.70;62.40;;;;;;4993538;28;20026;-83
2021/07/11 09:51:44;;;;;;;7.60;6.63;;;23.70;62.40;;;;;;4977028;28;20132;-82
2021/07/11 09:54:14;;;;;;;7.85;6.18;;;23.70;62.30;;;;;;4993220;28;20029;-82
2021/07/11 09:56:46;;;;;;;7.18;6.40;;;23.80;62.40;;;;;;4977343;28;20041;-83
2021/07/11 09:59:14;;;;;;;7.15;5.78;;;23.80;62.40;;;;;;4976846;28;20031;-81
2021/07/11 10:01:42;;;;;;;6.85;5.53;;;23.90;62.40;;;;;;4976830;28;20042;-80
2021/07/11 10:04:09;;;;;;;7.68;6.13;;;23.90;62.30;;;;;;4961345;28;20458;-81
2021/07/11 10:06:36;;;;;;;7.30;6.00;;;23.90;62.30;;;;;;4994338;28;20418;-80
2021/07/11 10:09:05;;;;;;;6.97;5.65;;;23.90;62.20;;;;;;4976384;28;20081;-81
2021/07/11 10:11:31;;;;;;;7.82;6.05;;;24.00;62.20;;;;;;4976680;28;20133;-80
2021/07/11 10:13:56;;;;;;;8.10;6.30;;;24.00;62.20;;;;;;4994228;28;20109;-79
2021/07/11 10:16:25;;;;;;;6.60;5.82;;;24.00;62.10;;;;;;4994226;28;20026;-79
2021/07/11 10:18:59;;;;;;;7.30;5.43;;;24.10;62.10;;;;;;4976625;28;20348;-79
2021/07/11 10:21:31;;;;;;;7.68;6.43;;;24.10;62.10;;;;;;4977070;28;20355;-80
2021/07/11 10:23:57;;;;;;;7.75;6.00;;;24.20;62.10;;;;;;4977210;28;20026;-79
2021/07/11 10:26:33;;;;;;;6.55;5.45;;;24.20;61.90;;;;;;4994084;28;20022;-79
2021/07/11 10:29:10;;;;;;;6.43;5.45;;;24.30;61.90;;;;;;4977488;28;20034;-79
2021/07/11 10:31:45;;;;;;;7.95;6.03;;;24.30;62.00;;;;;;4994102;28;20097;-80
2021/07/11 10:34:11;;;;;;;7.03;4.90;;;24.40;61.90;;;;;;4993627;28;20554;-80
2021/07/11 10:36:42;;;;;;;6.47;5.40;;;24.40;61.80;;;;;;4977146;28;20027;-80
2021/07/11 10:39:10;;;;;;;6.50;5.07;;;24.40;61.80;;;;;;4993955;28;20525;-80
2021/07/11 10:41:47;;;;;;;6.90;5.38;;;24.50;61.80;;;;;;4961058;28;20065;-80
2021/07/11 10:44:20;;;;;;;6.30;5.20;;;24.50;61.80;;;;;;4993918;28;20118;-80
2021/07/11 10:46:53;;;;;;;6.20;5.00;;;24.60;61.70;;;;;;4976689;28;20061;-80
2021/07/11 10:49:24;;;;;;;6.30;5.10;;;24.60;61.70;;;;;;4992750;28;20026;-79
2021/07/11 10:51:53;;;;;;;6.18;5.07;;;24.70;61.60;;;;;;4960072;28;20041;-79
2021/07/11 10:54:20;;;;;;;6.03;4.85;;;24.70;61.50;;;;;;4993842;28;20109;-81
2021/07/11 10:56:46;;;;;;;6.88;5.45;;;24.80;61.60;;;;;;4960454;28;20043;-81
2021/07/11 10:59:27;;;;;;;6.55;4.97;;;24.80;61.50;;;;;;4960656;28;20026;-81
2021/07/11 11:01:53;;;;;;;5.75;4.60;;;24.80;61.60;;;;;;4993207;28;20030;-81
2021/07/11 11:04:20;;;;;;;6.25;4.78;;;24.90;61.50;;;;;;4976189;28;20050;-80
2021/07/11 11:06:46;;;;;;;6.60;5.43;;;24.90;61.40;;;;;;4976363;28;20427;-80
2021/07/11 11:09:12;;;;;;;5.55;4.82;;;25.00;61.40;;;;;;4976272;28;20081;-81
2021/07/11 11:11:38;;;;;;;6.70;5.30;;;25.10;61.40;;;;;;4976135;28;20121;-81
2021/07/11 11:14:09;;;;;;;6.43;5.35;;;25.10;61.40;;;;;;4959947;28;20057;-81
2021/07/11 11:16:45;;;;;;;6.97;5.13;;;25.10;61.30;;;;;;4960433;28;20030;-81
2021/07/11 11:19:15;;;;;;;6.32;4.88;;;25.20;61.40;;;;;;4993904;28;20041;-82
2021/07/11 11:21:41;;;;;;;5.90;4.70;;;25.30;61.30;;;;;;4995458;28;20499;-81
2021/07/11 11:24:08;;;;;;;7.03;5.53;;;25.30;61.20;;;;;;4979812;28;20050;-81
2021/07/11 11:26:34;;;;;;;6.78;5.20;;;25.30;61.20;;;;;;4979910;28;20466;-82
2021/07/11 11:29:01;;;;;;;6.78;5.25;;;25.40;61.20;;;;;;4996887;28;20030;-81
2021/07/11 11:31:35;;;;;;;5.80;4.85;;;25.40;61.10;;;;;;4995917;28;20035;-81
2021/07/11 11:34:08;;;;;;;5.97;4.40;;;25.50;61.10;;;;;;4979795;28;20037;-81
2021/07/11 11:36:41;;;;;;;6.30;4.97;;;25.50;61.10;;;;;;4963744;28;20475;-82
2021/07/11 11:39:17;;;;;;;5.72;4.72;;;25.60;61.00;;;;;;4979554;28;20030;-82
2021/07/11 11:41:43;;;;;;;5.80;4.65;;;25.60;61.10;;;;;;4980122;28;20125;-83
2021/07/11 11:44:14;;;;;;;6.20;4.97;;;25.70;61.00;;;;;;4979405;28;20117;-82
2021/07/11 11:46:45;;;;;;;5.80;4.72;;;25.70;61.10;;;;;;4980044;28;20038;-81
2021/07/11 11:49:13;;;;;;;5.32;4.38;;;25.80;61.10;;;;;;4996646;28;20030;-82
2021/07/11 11:51:54;;;;;;;5.55;4.28;;;25.80;61.00;;;;;;4979233;28;20045;-81
2021/07/11 11:54:31;;;;;;;6.15;4.63;;;25.80;61.10;;;;;;4961140;28;20096;-82
2021/07/11 11:56:57;;;;;;;5.82;4.68;;;25.90;61.10;;;;;;4979270;28;20098;-82
2021/07/11 11:59:24;;;;;;;5.80;4.55;;;26.00;61.10;;;;;;4979084;28;20030;-81
2021/07/11 12:01:56;;;;;;;6.05;4.78;;;26.00;61.00;;;;;;4979244;28;20093;-82
2021/07/11 12:04:22;;;;;;;5.07;4.00;;;26.00;61.10;;;;;;4963017;28;20100;-81
2021/07/11 12:06:51;;;;;;;5.43;4.20;;;26.10;61.10;;;;;;4979091;28;20034;-82
2021/07/11 12:09:21;;;;;;;5.78;4.15;;;26.10;61.10;;;;;;4962999;28;20113;-81
2021/07/11 12:12:08;;;;;;;6.00;4.63;;;26.10;61.10;;;;;;4978621;28;20129;-81
2021/07/11 12:14:36;;;;;;;5.43;4.30;;;26.10;61.10;;;;;;4978776;28;20031;-81
2021/07/11 12:17:08;;;;;;;5.40;4.20;;;26.20;61.00;;;;;;4978541;28;20126;-80
2021/07/11 12:19:54;;;;;;;5.07;3.92;;;26.20;61.00;;;;;;4962705;28;20034;-80
2021/07/11 12:22:29;;;;;;;5.55;4.45;;;26.30;61.10;;;;;;4962630;28;20058;-81
2021/07/11 12:25:15;;;;;;;5.53;4.28;;;26.30;60.90;;;;;;4994863;28;20049;-81
2021/07/11 12:27:43;;;;;;;5.30;4.00;;;26.40;60.90;;;;;;4978219;28;20088;-81
2021/07/11 12:30:12;;;;;;;5.50;4.22;;;26.40;60.80;;;;;;4994623;28;20023;-80
2021/07/11 12:32:50;;;;;;;5.00;3.83;;;26.40;60.80;;;;;;4995528;28;20022;-81
2021/07/11 12:35:17;;;;;;;5.20;4.03;;;26.50;60.80;;;;;;4994686;28;20411;-80
2021/07/11 12:37:52;;;;;;;5.20;4.00;;;26.50;60.60;;;;;;4995583;28;20049;-80
2021/07/11 12:40:20;;;;;;;4.85;3.85;;;26.60;60.70;;;;;;4995791;28;20030;-81
2021/07/11 12:42:46;;;;;;;5.95;4.38;;;26.60;60.50;;;;;;4995867;28;20018;-80
2021/07/11 12:45:19;;;;;;;5.38;4.03;;;26.60;60.40;;;;;;4962457;28;20034;-80
2021/07/11 12:47:53;;;;;;;4.90;3.88;;;26.70;60.50;;;;;;4994174;28;20042;-80
2021/07/11 12:50:35;;;;;;;4.90;3.88;;;26.70;60.40;;;;;;4995412;28;20034;-80
2021/07/11 12:53:02;;;;;;;4.32;3.60;;;26.80;60.40;;;;;;4995565;28;20026;-80
2021/07/11 12:55:28;;;;;;;5.10;4.10;;;26.80;60.20;;;;;;4994535;28;20027;-80
2021/07/11 12:57:54;;;;;;;4.80;3.78;;;26.80;60.20;;;;;;4978199;28;20038;-80